sensor_id;sensor_type;location;lat;lon;timestamp;P1;durP1;ratioP1;P2;durP2;ratioP2
77814;SDS011;67002;52.124;21.210;2023-05-21T00:00:50;12.30;;;7.10;;
77814;SDS011;67002;52.124;21.210;2023-05-21T00:03:38;14.90;;;7.90;;
77814;SDS011;67002;52.124;21.210;2023-05-21T00:06:11;12.00;;;7.00;;
77814;SDS011;67002;52.124;21.210;2023-05-21T00:08:43;14.70;;;7.60;;
77814;SDS011;67002;52.124;21.210;2023-05-21T00:11:15;11.50;;;7.30;;
77814;SDS011;67002;52.124;21.210;2023-05-21T00:13:47;10.90;;;7.40;;
77814;SDS011;67002;52.124;21.210;2023-05-21T00:16:19;9.70;;;7.00;;
77814;SDS011;67002;52.124;21.210;2023-05-21T00:18:51;12.90;;;7.00;;
77814;SDS011;67002;52.124;21.210;2023-05-21T00:21:25;12.70;;;6.90;;
77814;SDS011;67002;52.124;21.210;2023-05-21T00:26:31;9.40;;;6.10;;
77814;SDS011;67002;52.124;21.210;2023-05-21T00:29:03;12.10;;;5.90;;
77814;SDS011;67002;52.124;21.210;2023-05-21T00:31:35;8.50;;;5.90;;
77814;SDS011;67002;52.124;21.210;2023-05-21T00:34:07;9.70;;;5.90;;
77814;SDS011;67002;52.124;21.210;2023-05-21T00:36:39;10.50;;;6.50;;
77814;SDS011;67002;52.124;21.210;2023-05-21T00:39:13;9.70;;;6.40;;
77814;SDS011;67002;52.124;21.210;2023-05-21T00:41:45;12.80;;;7.00;;
77814;SDS011;67002;52.124;21.210;2023-05-21T00:44:17;9.90;;;6.20;;
77814;SDS011;67002;52.124;21.210;2023-05-21T00:46:50;9.10;;;6.10;;
77814;SDS011;67002;52.124;21.210;2023-05-21T00:49:22;9.10;;;6.10;;
77814;SDS011;67002;52.124;21.210;2023-05-21T00:51:54;8.30;;;5.60;;
77814;SDS011;67002;52.124;21.210;2023-05-21T00:54:29;10.40;;;5.80;;
77814;SDS011;67002;52.124;21.210;2023-05-21T00:57:01;8.80;;;5.50;;
77814;SDS011;67002;52.124;21.210;2023-05-21T00:59:33;9.20;;;6.00;;
77814;SDS011;67002;52.124;21.210;2023-05-21T01:02:05;8.60;;;5.50;;
77814;SDS011;67002;52.124;21.210;2023-05-21T01:04:37;6.60;;;5.10;;
77814;SDS011;67002;52.124;21.210;2023-05-21T01:07:11;10.80;;;5.40;;
77814;SDS011;67002;52.124;21.210;2023-05-21T01:09:43;8.50;;;5.90;;
77814;SDS011;67002;52.124;21.210;2023-05-21T01:12:15;10.90;;;5.10;;
77814;SDS011;67002;52.124;21.210;2023-05-21T01:14:48;7.60;;;5.20;;
77814;SDS011;67002;52.124;21.210;2023-05-21T01:17:20;10.80;;;5.00;;
77814;SDS011;67002;52.124;21.210;2023-05-21T01:19:52;7.00;;;5.00;;
77814;SDS011;67002;52.124;21.210;2023-05-21T01:22:24;10.90;;;4.70;;
77814;SDS011;67002;52.124;21.210;2023-05-21T01:24:58;11.70;;;4.70;;
77814;SDS011;67002;52.124;21.210;2023-05-21T01:27:31;7.30;;;4.80;;
77814;SDS011;67002;52.124;21.210;2023-05-21T01:30:03;6.40;;;4.50;;
77814;SDS011;67002;52.124;21.210;2023-05-21T01:32:39;7.00;;;4.90;;
77814;SDS011;67002;52.124;21.210;2023-05-21T01:35:16;7.40;;;5.20;;
77814;SDS011;67002;52.124;21.210;2023-05-21T01:37:52;8.70;;;4.30;;
77814;SDS011;67002;52.124;21.210;2023-05-21T01:40:30;7.90;;;4.60;;
77814;SDS011;67002;52.124;21.210;2023-05-21T01:43:08;7.30;;;4.60;;
77814;SDS011;67002;52.124;21.210;2023-05-21T01:45:41;6.90;;;4.80;;
77814;SDS011;67002;52.124;21.210;2023-05-21T01:48:13;6.30;;;4.40;;
77814;SDS011;67002;52.124;21.210;2023-05-21T01:50:46;8.10;;;4.70;;
77814;SDS011;67002;52.124;21.210;2023-05-21T01:53:18;7.50;;;4.10;;
77814;SDS011;67002;52.124;21.210;2023-05-21T01:55:50;5.80;;;4.00;;
77814;SDS011;67002;52.124;21.210;2023-05-21T01:58:22;7.20;;;4.80;;
77814;SDS011;67002;52.124;21.210;2023-05-21T02:00:54;7.20;;;4.20;;
77814;SDS011;67002;52.124;21.210;2023-05-21T02:03:26;9.50;;;4.40;;
77814;SDS011;67002;52.124;21.210;2023-05-21T02:05:59;9.00;;;4.50;;
77814;SDS011;67002;52.124;21.210;2023-05-21T02:08:31;5.80;;;4.00;;
77814;SDS011;67002;52.124;21.210;2023-05-21T02:11:03;5.90;;;4.00;;
77814;SDS011;67002;52.124;21.210;2023-05-21T02:13:35;5.70;;;4.10;;
77814;SDS011;67002;52.124;21.210;2023-05-21T02:16:10;7.70;;;4.60;;
77814;SDS011;67002;52.124;21.210;2023-05-21T02:18:44;7.90;;;3.50;;
77814;SDS011;67002;52.124;21.210;2023-05-21T02:21:19;6.70;;;4.60;;
77814;SDS011;67002;52.124;21.210;2023-05-21T02:23:51;8.40;;;4.60;;
77814;SDS011;67002;52.124;21.210;2023-05-21T02:26:23;5.20;;;3.80;;
77814;SDS011;67002;52.124;21.210;2023-05-21T02:28:55;4.70;;;3.70;;
77814;SDS011;67002;52.124;21.210;2023-05-21T02:31:27;7.70;;;4.20;;
77814;SDS011;67002;52.124;21.210;2023-05-21T02:34:00;5.80;;;4.10;;
77814;SDS011;67002;52.124;21.210;2023-05-21T02:36:32;5.00;;;4.10;;
77814;SDS011;67002;52.124;21.210;2023-05-21T02:39:04;4.90;;;4.40;;
77814;SDS011;67002;52.124;21.210;2023-05-21T02:41:36;6.50;;;3.70;;
77814;SDS011;67002;52.124;21.210;2023-05-21T02:44:08;4.40;;;3.40;;
77814;SDS011;67002;52.124;21.210;2023-05-21T02:46:40;7.20;;;3.30;;
77814;SDS011;67002;52.124;21.210;2023-05-21T02:49:13;4.80;;;3.50;;
77814;SDS011;67002;52.124;21.210;2023-05-21T02:51:46;5.70;;;4.10;;
77814;SDS011;67002;52.124;21.210;2023-05-21T02:54:17;6.40;;;4.10;;
77814;SDS011;67002;52.124;21.210;2023-05-21T02:56:49;5.30;;;3.70;;
77814;SDS011;67002;52.124;21.210;2023-05-21T02:59:21;8.00;;;4.60;;
77814;SDS011;67002;52.124;21.210;2023-05-21T03:01:53;6.10;;;4.20;;
77814;SDS011;67002;52.124;21.210;2023-05-21T03:04:26;5.80;;;3.70;;
77814;SDS011;67002;52.124;21.210;2023-05-21T03:06:58;5.50;;;4.00;;
77814;SDS011;67002;52.124;21.210;2023-05-21T03:09:30;6.10;;;3.90;;
77814;SDS011;67002;52.124;21.210;2023-05-21T03:12:02;5.30;;;3.90;;
77814;SDS011;67002;52.124;21.210;2023-05-21T03:14:34;4.50;;;3.80;;
77814;SDS011;67002;52.124;21.210;2023-05-21T03:17:06;6.40;;;4.30;;
77814;SDS011;67002;52.124;21.210;2023-05-21T03:19:42;5.80;;;3.90;;
77814;SDS011;67002;52.124;21.210;2023-05-21T03:22:14;5.00;;;3.10;;
77814;SDS011;67002;52.124;21.210;2023-05-21T03:24:47;6.90;;;3.40;;
77814;SDS011;67002;52.124;21.210;2023-05-21T03:27:21;7.10;;;3.70;;
77814;SDS011;67002;52.124;21.210;2023-05-21T03:29:54;5.60;;;3.20;;
77814;SDS011;67002;52.124;21.210;2023-05-21T03:32:28;4.30;;;3.20;;
77814;SDS011;67002;52.124;21.210;2023-05-21T03:35:01;4.00;;;3.30;;
77814;SDS011;67002;52.124;21.210;2023-05-21T03:37:35;4.20;;;3.00;;
77814;SDS011;67002;52.124;21.210;2023-05-21T03:40:07;7.10;;;3.20;;
77814;SDS011;67002;52.124;21.210;2023-05-21T03:42:40;4.40;;;2.90;;
77814;SDS011;67002;52.124;21.210;2023-05-21T03:45:12;3.60;;;2.70;;
77814;SDS011;67002;52.124;21.210;2023-05-21T03:48:03;5.60;;;3.10;;
77814;SDS011;67002;52.124;21.210;2023-05-21T03:50:35;3.50;;;2.70;;
77814;SDS011;67002;52.124;21.210;2023-05-21T03:53:08;3.90;;;3.00;;
77814;SDS011;67002;52.124;21.210;2023-05-21T03:55:40;3.70;;;2.80;;
77814;SDS011;67002;52.124;21.210;2023-05-21T03:58:12;4.50;;;2.90;;
77814;SDS011;67002;52.124;21.210;2023-05-21T04:00:44;4.70;;;2.90;;
77814;SDS011;67002;52.124;21.210;2023-05-21T04:03:16;5.70;;;2.90;;
77814;SDS011;67002;52.124;21.210;2023-05-21T04:05:48;5.90;;;2.80;;
77814;SDS011;67002;52.124;21.210;2023-05-21T04:08:20;3.00;;;2.30;;
77814;SDS011;67002;52.124;21.210;2023-05-21T04:10:52;2.90;;;2.20;;
77814;SDS011;67002;52.124;21.210;2023-05-21T04:13:24;9.30;;;2.80;;
77814;SDS011;67002;52.124;21.210;2023-05-21T04:15:56;5.80;;;2.40;;
77814;SDS011;67002;52.124;21.210;2023-05-21T04:18:28;5.90;;;2.90;;
77814;SDS011;67002;52.124;21.210;2023-05-21T04:21:02;4.10;;;2.60;;
77814;SDS011;67002;52.124;21.210;2023-05-21T04:23:35;4.70;;;2.40;;
77814;SDS011;67002;52.124;21.210;2023-05-21T04:26:12;3.70;;;2.50;;
77814;SDS011;67002;52.124;21.210;2023-05-21T04:28:44;5.20;;;2.60;;
77814;SDS011;67002;52.124;21.210;2023-05-21T04:31:16;3.10;;;2.50;;
77814;SDS011;67002;52.124;21.210;2023-05-21T04:33:50;3.90;;;2.30;;
77814;SDS011;67002;52.124;21.210;2023-05-21T04:36:22;4.30;;;2.70;;
77814;SDS011;67002;52.124;21.210;2023-05-21T04:38:57;2.90;;;2.10;;
77814;SDS011;67002;52.124;21.210;2023-05-21T04:41:29;2.60;;;2.10;;
77814;SDS011;67002;52.124;21.210;2023-05-21T04:44:02;3.50;;;2.40;;
77814;SDS011;67002;52.124;21.210;2023-05-21T04:46:34;5.50;;;2.30;;
77814;SDS011;67002;52.124;21.210;2023-05-21T04:49:09;3.60;;;2.30;;
77814;SDS011;67002;52.124;21.210;2023-05-21T04:51:41;2.90;;;2.00;;
77814;SDS011;67002;52.124;21.210;2023-05-21T04:54:13;4.50;;;2.30;;
77814;SDS011;67002;52.124;21.210;2023-05-21T04:56:45;6.00;;;2.30;;
77814;SDS011;67002;52.124;21.210;2023-05-21T04:59:18;5.10;;;1.90;;
77814;SDS011;67002;52.124;21.210;2023-05-21T05:01:50;3.60;;;2.20;;
77814;SDS011;67002;52.124;21.210;2023-05-21T05:04:22;2.80;;;2.20;;
77814;SDS011;67002;52.124;21.210;2023-05-21T05:06:54;3.10;;;2.20;;
77814;SDS011;67002;52.124;21.210;2023-05-21T05:09:27;5.20;;;1.90;;
77814;SDS011;67002;52.124;21.210;2023-05-21T05:11:59;2.50;;;2.00;;
77814;SDS011;67002;52.124;21.210;2023-05-21T05:14:32;3.30;;;2.00;;
77814;SDS011;67002;52.124;21.210;2023-05-21T05:17:04;3.80;;;1.70;;
77814;SDS011;67002;52.124;21.210;2023-05-21T05:19:38;3.10;;;1.80;;
77814;SDS011;67002;52.124;21.210;2023-05-21T05:22:09;3.40;;;1.80;;
77814;SDS011;67002;52.124;21.210;2023-05-21T05:24:42;5.50;;;2.00;;
77814;SDS011;67002;52.124;21.210;2023-05-21T05:27:15;2.40;;;1.80;;
77814;SDS011;67002;52.124;21.210;2023-05-21T05:29:47;5.20;;;1.90;;
77814;SDS011;67002;52.124;21.210;2023-05-21T05:32:18;3.00;;;1.90;;
77814;SDS011;67002;52.124;21.210;2023-05-21T05:34:51;4.30;;;2.00;;
77814;SDS011;67002;52.124;21.210;2023-05-21T05:37:22;2.90;;;1.80;;
77814;SDS011;67002;52.124;21.210;2023-05-21T05:39:54;3.30;;;2.10;;
77814;SDS011;67002;52.124;21.210;2023-05-21T05:42:26;4.50;;;1.90;;
77814;SDS011;67002;52.124;21.210;2023-05-21T05:44:59;5.60;;;2.20;;
77814;SDS011;67002;52.124;21.210;2023-05-21T05:47:32;4.90;;;2.00;;
77814;SDS011;67002;52.124;21.210;2023-05-21T05:50:04;2.80;;;2.00;;
77814;SDS011;67002;52.124;21.210;2023-05-21T05:52:37;3.00;;;1.90;;
77814;SDS011;67002;52.124;21.210;2023-05-21T05:55:09;3.00;;;1.90;;
77814;SDS011;67002;52.124;21.210;2023-05-21T05:57:42;4.00;;;1.80;;
77814;SDS011;67002;52.124;21.210;2023-05-21T06:00:15;3.20;;;1.60;;
77814;SDS011;67002;52.124;21.210;2023-05-21T06:02:49;3.80;;;1.80;;
77814;SDS011;67002;52.124;21.210;2023-05-21T06:05:21;3.70;;;2.10;;
77814;SDS011;67002;52.124;21.210;2023-05-21T06:07:53;3.40;;;2.10;;
77814;SDS011;67002;52.124;21.210;2023-05-21T06:10:26;3.10;;;1.90;;
77814;SDS011;67002;52.124;21.210;2023-05-21T06:12:58;2.60;;;1.70;;
77814;SDS011;67002;52.124;21.210;2023-05-21T06:15:30;3.00;;;1.80;;
77814;SDS011;67002;52.124;21.210;2023-05-21T06:18:03;3.80;;;2.10;;
77814;SDS011;67002;52.124;21.210;2023-05-21T06:20:35;3.40;;;1.90;;
77814;SDS011;67002;52.124;21.210;2023-05-21T06:23:07;3.50;;;2.30;;
77814;SDS011;67002;52.124;21.210;2023-05-21T06:25:39;3.00;;;2.00;;
77814;SDS011;67002;52.124;21.210;2023-05-21T06:28:11;3.10;;;2.00;;
77814;SDS011;67002;52.124;21.210;2023-05-21T06:30:43;3.50;;;1.60;;
77814;SDS011;67002;52.124;21.210;2023-05-21T06:33:16;3.20;;;1.70;;
77814;SDS011;67002;52.124;21.210;2023-05-21T06:35:49;2.30;;;1.60;;
77814;SDS011;67002;52.124;21.210;2023-05-21T06:38:21;3.00;;;1.90;;
77814;SDS011;67002;52.124;21.210;2023-05-21T06:40:53;4.10;;;1.80;;
77814;SDS011;67002;52.124;21.210;2023-05-21T06:43:46;3.50;;;1.90;;
77814;SDS011;67002;52.124;21.210;2023-05-21T06:46:37;1.90;;;1.50;;
77814;SDS011;67002;52.124;21.210;2023-05-21T06:49:09;3.30;;;1.80;;
77814;SDS011;67002;52.124;21.210;2023-05-21T06:51:44;2.80;;;1.90;;
77814;SDS011;67002;52.124;21.210;2023-05-21T06:54:16;2.80;;;2.00;;
77814;SDS011;67002;52.124;21.210;2023-05-21T06:56:49;2.50;;;1.90;;
77814;SDS011;67002;52.124;21.210;2023-05-21T06:59:21;4.40;;;1.80;;
77814;SDS011;67002;52.124;21.210;2023-05-21T07:01:53;3.00;;;2.00;;
77814;SDS011;67002;52.124;21.210;2023-05-21T07:04:25;3.10;;;1.90;;
77814;SDS011;67002;52.124;21.210;2023-05-21T07:06:57;4.40;;;1.90;;
77814;SDS011;67002;52.124;21.210;2023-05-21T07:09:29;2.90;;;1.90;;
77814;SDS011;67002;52.124;21.210;2023-05-21T07:12:01;3.70;;;2.00;;
77814;SDS011;67002;52.124;21.210;2023-05-21T07:14:33;2.40;;;1.50;;
77814;SDS011;67002;52.124;21.210;2023-05-21T07:17:05;1.00;;;0.80;;
77814;SDS011;67002;52.124;21.210;2023-05-21T07:19:37;0.40;;;0.30;;
77814;SDS011;67002;52.124;21.210;2023-05-21T07:22:10;0.10;;;0.10;;
77814;SDS011;67002;52.124;21.210;2023-05-21T07:24:41;0.00;;;0.00;;
77814;SDS011;67002;52.124;21.210;2023-05-21T07:27:13;0.00;;;0.00;;
77814;SDS011;67002;52.124;21.210;2023-05-21T07:29:55;0.00;;;0.00;;
77814;SDS011;67002;52.124;21.210;2023-05-21T07:32:27;0.10;;;0.00;;
77814;SDS011;67002;52.124;21.210;2023-05-21T07:34:59;0.00;;;0.00;;
77814;SDS011;67002;52.124;21.210;2023-05-21T07:37:32;0.00;;;0.00;;
77814;SDS011;67002;52.124;21.210;2023-05-21T07:40:05;0.00;;;0.00;;
77814;SDS011;67002;52.124;21.210;2023-05-21T07:42:39;0.00;;;0.00;;
77814;SDS011;67002;52.124;21.210;2023-05-21T07:45:12;0.00;;;0.00;;
77814;SDS011;67002;52.124;21.210;2023-05-21T07:47:45;0.00;;;0.00;;
77814;SDS011;67002;52.124;21.210;2023-05-21T07:50:17;0.00;;;0.00;;
77814;SDS011;67002;52.124;21.210;2023-05-21T07:52:48;0.00;;;0.00;;
77814;SDS011;67002;52.124;21.210;2023-05-21T07:55:21;0.00;;;0.00;;
77814;SDS011;67002;52.124;21.210;2023-05-21T07:57:53;0.80;;;0.00;;
77814;SDS011;67002;52.124;21.210;2023-05-21T08:00:29;0.00;;;0.00;;
77814;SDS011;67002;52.124;21.210;2023-05-21T08:03:15;0.00;;;0.00;;
77814;SDS011;67002;52.124;21.210;2023-05-21T08:05:48;0.00;;;0.00;;
77814;SDS011;67002;52.124;21.210;2023-05-21T08:08:20;0.00;;;0.00;;
77814;SDS011;67002;52.124;21.210;2023-05-21T08:10:53;0.10;;;0.10;;
77814;SDS011;67002;52.124;21.210;2023-05-21T08:13:27;0.00;;;0.00;;
77814;SDS011;67002;52.124;21.210;2023-05-21T08:15:59;0.00;;;0.00;;
77814;SDS011;67002;52.124;21.210;2023-05-21T08:18:31;0.00;;;0.00;;
77814;SDS011;67002;52.124;21.210;2023-05-21T08:21:03;0.00;;;0.00;;
77814;SDS011;67002;52.124;21.210;2023-05-21T08:23:35;0.00;;;0.00;;
77814;SDS011;67002;52.124;21.210;2023-05-21T08:26:07;0.10;;;0.00;;
77814;SDS011;67002;52.124;21.210;2023-05-21T08:28:40;0.00;;;0.00;;
77814;SDS011;67002;52.124;21.210;2023-05-21T08:31:13;0.20;;;0.00;;
77814;SDS011;67002;52.124;21.210;2023-05-21T08:33:50;0.00;;;0.00;;
77814;SDS011;67002;52.124;21.210;2023-05-21T08:36:26;0.00;;;0.00;;
77814;SDS011;67002;52.124;21.210;2023-05-21T08:39:03;0.00;;;0.00;;
77814;SDS011;67002;52.124;21.210;2023-05-21T08:41:38;0.00;;;0.00;;
77814;SDS011;67002;52.124;21.210;2023-05-21T08:44:12;0.00;;;0.00;;
77814;SDS011;67002;52.124;21.210;2023-05-21T08:46:47;0.00;;;0.00;;
77814;SDS011;67002;52.124;21.210;2023-05-21T08:49:20;0.10;;;0.00;;
77814;SDS011;67002;52.124;21.210;2023-05-21T08:51:56;0.00;;;0.00;;
77814;SDS011;67002;52.124;21.210;2023-05-21T08:54:29;0.00;;;0.00;;
77814;SDS011;67002;52.124;21.210;2023-05-21T08:57:01;0.00;;;0.00;;
77814;SDS011;67002;52.124;21.210;2023-05-21T08:59:34;0.00;;;0.00;;
77814;SDS011;67002;52.124;21.210;2023-05-21T09:02:14;0.00;;;0.00;;
77814;SDS011;67002;52.124;21.210;2023-05-21T09:07:18;0.00;;;0.00;;
77814;SDS011;67002;52.124;21.210;2023-05-21T09:10:16;0.00;;;0.00;;
77814;SDS011;67002;52.124;21.210;2023-05-21T09:12:49;0.00;;;0.00;;
77814;SDS011;67002;52.124;21.210;2023-05-21T09:15:22;0.00;;;0.00;;
77814;SDS011;67002;52.124;21.210;2023-05-21T09:17:54;0.00;;;0.00;;
77814;SDS011;67002;52.124;21.210;2023-05-21T09:20:41;0.10;;;0.00;;
77814;SDS011;67002;52.124;21.210;2023-05-21T09:23:15;0.00;;;0.00;;
77814;SDS011;67002;52.124;21.210;2023-05-21T09:25:47;0.00;;;0.00;;
77814;SDS011;67002;52.124;21.210;2023-05-21T09:28:28;0.00;;;0.00;;
77814;SDS011;67002;52.124;21.210;2023-05-21T09:31:01;0.10;;;0.10;;
77814;SDS011;67002;52.124;21.210;2023-05-21T09:33:34;0.00;;;0.00;;
77814;SDS011;67002;52.124;21.210;2023-05-21T14:12:01;0.00;;;0.00;;
77814;SDS011;67002;52.124;21.210;2023-05-21T14:14:34;0.00;;;0.00;;
77814;SDS011;67002;52.124;21.210;2023-05-21T14:17:06;0.00;;;0.00;;
77814;SDS011;67002;52.124;21.210;2023-05-21T14:19:38;0.00;;;0.00;;
77814;SDS011;67002;52.124;21.210;2023-05-21T14:22:10;0.00;;;0.00;;
77814;SDS011;67002;52.124;21.210;2023-05-21T14:24:42;0.00;;;0.00;;
77814;SDS011;67002;52.124;21.210;2023-05-21T14:27:15;0.00;;;0.00;;
77814;SDS011;67002;52.124;21.210;2023-05-21T14:29:47;0.00;;;0.00;;
77814;SDS011;67002;52.124;21.210;2023-05-21T14:32:19;0.00;;;0.00;;
77814;SDS011;67002;52.124;21.210;2023-05-21T14:34:51;0.00;;;0.00;;
77814;SDS011;67002;52.124;21.210;2023-05-21T14:37:23;0.00;;;0.00;;
77814;SDS011;67002;52.124;21.210;2023-05-21T14:39:55;0.00;;;0.00;;
77814;SDS011;67002;52.124;21.210;2023-05-21T14:42:27;0.00;;;0.00;;
77814;SDS011;67002;52.124;21.210;2023-05-21T14:45:00;0.00;;;0.00;;
77814;SDS011;67002;52.124;21.210;2023-05-21T14:47:45;0.20;;;0.00;;
77814;SDS011;67002;52.124;21.210;2023-05-21T14:50:18;0.10;;;0.10;;
77814;SDS011;67002;52.124;21.210;2023-05-21T14:53:03;0.00;;;0.00;;
77814;SDS011;67002;52.124;21.210;2023-05-21T14:55:35;0.00;;;0.00;;
77814;SDS011;67002;52.124;21.210;2023-05-21T14:58:07;0.00;;;0.00;;
77814;SDS011;67002;52.124;21.210;2023-05-21T15:00:40;0.00;;;0.00;;
77814;SDS011;67002;52.124;21.210;2023-05-21T15:03:12;0.00;;;0.00;;
77814;SDS011;67002;52.124;21.210;2023-05-21T15:05:44;0.00;;;0.00;;
77814;SDS011;67002;52.124;21.210;2023-05-21T15:08:16;0.00;;;0.00;;
77814;SDS011;67002;52.124;21.210;2023-05-21T15:10:48;0.00;;;0.00;;
77814;SDS011;67002;52.124;21.210;2023-05-21T15:13:20;0.00;;;0.00;;
77814;SDS011;67002;52.124;21.210;2023-05-21T15:15:52;0.00;;;0.00;;
77814;SDS011;67002;52.124;21.210;2023-05-21T15:18:24;0.00;;;0.00;;
77814;SDS011;67002;52.124;21.210;2023-05-21T15:20:57;0.00;;;0.00;;
77814;SDS011;67002;52.124;21.210;2023-05-21T15:23:29;0.00;;;0.00;;
77814;SDS011;67002;52.124;21.210;2023-05-21T15:26:01;0.00;;;0.00;;
77814;SDS011;67002;52.124;21.210;2023-05-21T15:28:33;0.00;;;0.00;;
77814;SDS011;67002;52.124;21.210;2023-05-21T15:31:05;0.00;;;0.00;;
77814;SDS011;67002;52.124;21.210;2023-05-21T15:33:37;0.00;;;0.00;;
77814;SDS011;67002;52.124;21.210;2023-05-21T15:36:09;0.00;;;0.00;;
77814;SDS011;67002;52.124;21.210;2023-05-21T15:38:41;0.00;;;0.00;;
77814;SDS011;67002;52.124;21.210;2023-05-21T15:41:13;0.00;;;0.00;;
77814;SDS011;67002;52.124;21.210;2023-05-21T15:43:45;0.00;;;0.00;;
77814;SDS011;67002;52.124;21.210;2023-05-21T15:46:17;0.10;;;0.00;;
77814;SDS011;67002;52.124;21.210;2023-05-21T15:48:49;0.00;;;0.00;;
77814;SDS011;67002;52.124;21.210;2023-05-21T15:51:21;0.00;;;0.00;;
77814;SDS011;67002;52.124;21.210;2023-05-21T15:53:53;0.00;;;0.00;;
77814;SDS011;67002;52.124;21.210;2023-05-21T15:56:25;0.00;;;0.00;;
77814;SDS011;67002;52.124;21.210;2023-05-21T15:58:57;0.00;;;0.00;;
77814;SDS011;67002;52.124;21.210;2023-05-21T16:01:29;0.00;;;0.00;;
77814;SDS011;67002;52.124;21.210;2023-05-21T16:04:02;0.00;;;0.00;;
77814;SDS011;67002;52.124;21.210;2023-05-21T16:06:34;0.00;;;0.00;;
77814;SDS011;67002;52.124;21.210;2023-05-21T16:09:06;0.00;;;0.00;;
77814;SDS011;67002;52.124;21.210;2023-05-21T16:11:38;0.00;;;0.00;;
77814;SDS011;67002;52.124;21.210;2023-05-21T16:16:42;0.00;;;0.00;;
77814;SDS011;67002;52.124;21.210;2023-05-21T16:19:13;0.00;;;0.00;;
77814;SDS011;67002;52.124;21.210;2023-05-21T16:21:45;0.00;;;0.00;;
77814;SDS011;67002;52.124;21.210;2023-05-21T16:24:17;0.00;;;0.00;;
77814;SDS011;67002;52.124;21.210;2023-05-21T16:26:49;0.00;;;0.00;;
77814;SDS011;67002;52.124;21.210;2023-05-21T16:29:21;0.00;;;0.00;;
77814;SDS011;67002;52.124;21.210;2023-05-21T16:31:53;0.00;;;0.00;;
77814;SDS011;67002;52.124;21.210;2023-05-21T16:34:25;0.00;;;0.00;;
77814;SDS011;67002;52.124;21.210;2023-05-21T16:36:57;0.00;;;0.00;;
77814;SDS011;67002;52.124;21.210;2023-05-21T16:39:28;0.00;;;0.00;;
77814;SDS011;67002;52.124;21.210;2023-05-21T16:42:00;0.00;;;0.00;;
77814;SDS011;67002;52.124;21.210;2023-05-21T16:44:32;0.00;;;0.00;;
77814;SDS011;67002;52.124;21.210;2023-05-21T17:02:29;0.00;;;0.00;;
77814;SDS011;67002;52.124;21.210;2023-05-21T17:05:02;0.00;;;0.00;;
77814;SDS011;67002;52.124;21.210;2023-05-21T17:07:34;0.00;;;0.00;;
77814;SDS011;67002;52.124;21.210;2023-05-21T17:10:08;0.00;;;0.00;;
77814;SDS011;67002;52.124;21.210;2023-05-21T17:12:40;0.00;;;0.00;;
77814;SDS011;67002;52.124;21.210;2023-05-21T17:15:12;0.00;;;0.00;;
77814;SDS011;67002;52.124;21.210;2023-05-21T17:17:44;0.00;;;0.00;;
77814;SDS011;67002;52.124;21.210;2023-05-21T17:20:16;0.00;;;0.00;;
77814;SDS011;67002;52.124;21.210;2023-05-21T17:22:48;0.00;;;0.00;;
77814;SDS011;67002;52.124;21.210;2023-05-21T17:25:20;0.00;;;0.00;;
77814;SDS011;67002;52.124;21.210;2023-05-21T17:27:53;0.00;;;0.00;;
77814;SDS011;67002;52.124;21.210;2023-05-21T17:30:25;0.00;;;0.00;;
77814;SDS011;67002;52.124;21.210;2023-05-21T17:39:29;0.00;;;0.00;;
77814;SDS011;67002;52.124;21.210;2023-05-21T17:41:57;0.00;;;0.00;;
77814;SDS011;67002;52.124;21.210;2023-05-21T17:44:26;0.00;;;0.00;;
77814;SDS011;67002;52.124;21.210;2023-05-21T17:46:55;0.00;;;0.00;;
77814;SDS011;67002;52.124;21.210;2023-05-21T17:49:23;0.00;;;0.00;;
77814;SDS011;67002;52.124;21.210;2023-05-21T17:51:52;0.10;;;0.10;;
77814;SDS011;67002;52.124;21.210;2023-05-21T17:54:21;0.00;;;0.00;;
77814;SDS011;67002;52.124;21.210;2023-05-21T17:56:50;0.00;;;0.00;;
77814;SDS011;67002;52.124;21.210;2023-05-21T17:59:18;0.00;;;0.00;;
77814;SDS011;67002;52.124;21.210;2023-05-21T18:01:47;0.00;;;0.00;;
77814;SDS011;67002;52.124;21.210;2023-05-21T18:04:17;0.10;;;0.00;;
77814;SDS011;67002;52.124;21.210;2023-05-21T18:06:46;0.00;;;0.00;;
77814;SDS011;67002;52.124;21.210;2023-05-21T18:09:15;0.00;;;0.00;;
77814;SDS011;67002;52.124;21.210;2023-05-21T18:11:43;0.10;;;0.00;;
77814;SDS011;67002;52.124;21.210;2023-05-21T18:14:12;0.00;;;0.00;;
77814;SDS011;67002;52.124;21.210;2023-05-21T18:16:40;0.00;;;0.00;;
77814;SDS011;67002;52.124;21.210;2023-05-21T18:19:09;0.00;;;0.00;;
77814;SDS011;67002;52.124;21.210;2023-05-21T18:21:37;0.00;;;0.00;;
77814;SDS011;67002;52.124;21.210;2023-05-21T18:24:07;0.00;;;0.00;;
77814;SDS011;67002;52.124;21.210;2023-05-21T18:26:35;0.00;;;0.00;;
77814;SDS011;67002;52.124;21.210;2023-05-21T18:29:04;0.10;;;0.00;;
77814;SDS011;67002;52.124;21.210;2023-05-21T18:31:32;0.00;;;0.00;;
77814;SDS011;67002;52.124;21.210;2023-05-21T18:34:01;0.00;;;0.00;;
77814;SDS011;67002;52.124;21.210;2023-05-21T18:36:29;0.00;;;0.00;;
77814;SDS011;67002;52.124;21.210;2023-05-21T18:39:05;0.00;;;0.00;;
77814;SDS011;67002;52.124;21.210;2023-05-21T18:41:33;0.00;;;0.00;;
77814;SDS011;67002;52.124;21.210;2023-05-21T18:44:03;0.00;;;0.00;;
77814;SDS011;67002;52.124;21.210;2023-05-21T18:46:32;0.00;;;0.00;;
77814;SDS011;67002;52.124;21.210;2023-05-21T18:49:00;0.00;;;0.00;;
77814;SDS011;67002;52.124;21.210;2023-05-21T18:51:29;0.00;;;0.00;;
77814;SDS011;67002;52.124;21.210;2023-05-21T18:53:58;0.00;;;0.00;;
77814;SDS011;67002;52.124;21.210;2023-05-21T18:56:26;0.00;;;0.00;;
77814;SDS011;67002;52.124;21.210;2023-05-21T18:58:55;0.00;;;0.00;;
77814;SDS011;67002;52.124;21.210;2023-05-21T19:01:23;0.00;;;0.00;;
77814;SDS011;67002;52.124;21.210;2023-05-21T19:03:52;0.00;;;0.00;;
77814;SDS011;67002;52.124;21.210;2023-05-21T19:06:21;0.00;;;0.00;;
77814;SDS011;67002;52.124;21.210;2023-05-21T19:08:51;0.00;;;0.00;;
77814;SDS011;67002;52.124;21.210;2023-05-21T19:11:20;0.00;;;0.00;;
77814;SDS011;67002;52.124;21.210;2023-05-21T19:13:50;0.00;;;0.00;;
77814;SDS011;67002;52.124;21.210;2023-05-21T19:16:19;0.00;;;0.00;;
77814;SDS011;67002;52.124;21.210;2023-05-21T19:18:47;0.00;;;0.00;;
77814;SDS011;67002;52.124;21.210;2023-05-21T19:21:15;0.10;;;0.00;;
77814;SDS011;67002;52.124;21.210;2023-05-21T19:23:44;0.00;;;0.00;;
77814;SDS011;67002;52.124;21.210;2023-05-21T19:26:20;0.00;;;0.00;;
77814;SDS011;67002;52.124;21.210;2023-05-21T19:28:49;0.00;;;0.00;;
77814;SDS011;67002;52.124;21.210;2023-05-21T19:31:21;0.00;;;0.00;;
77814;SDS011;67002;52.124;21.210;2023-05-21T19:33:50;0.00;;;0.00;;
77814;SDS011;67002;52.124;21.210;2023-05-21T19:36:19;0.10;;;0.00;;
77814;SDS011;67002;52.124;21.210;2023-05-21T19:38:48;0.00;;;0.00;;
77814;SDS011;67002;52.124;21.210;2023-05-21T19:41:17;0.00;;;0.00;;
77814;SDS011;67002;52.124;21.210;2023-05-21T19:43:46;0.00;;;0.00;;
77814;SDS011;67002;52.124;21.210;2023-05-21T19:46:14;0.00;;;0.00;;
77814;SDS011;67002;52.124;21.210;2023-05-21T19:48:47;0.00;;;0.00;;
77814;SDS011;67002;52.124;21.210;2023-05-21T19:51:16;0.00;;;0.00;;
77814;SDS011;67002;52.124;21.210;2023-05-21T19:53:45;0.20;;;0.10;;
77814;SDS011;67002;52.124;21.210;2023-05-21T19:56:14;0.10;;;0.10;;
77814;SDS011;67002;52.124;21.210;2023-05-21T19:58:42;0.00;;;0.00;;
77814;SDS011;67002;52.124;21.210;2023-05-21T20:01:14;0.10;;;0.10;;
77814;SDS011;67002;52.124;21.210;2023-05-21T20:03:43;0.00;;;0.00;;
77814;SDS011;67002;52.124;21.210;2023-05-21T20:06:12;0.00;;;0.00;;
77814;SDS011;67002;52.124;21.210;2023-05-21T20:08:44;0.00;;;0.00;;